sensor_id;sensor_type;location;lat;lon;timestamp;temperature;humidity
65836;SHT30;52595;51.608;7.216;2023-08-07T00:00:34;12.94;99.99
65836;SHT30;52595;51.608;7.216;2023-08-07T00:03:00;12.99;99.99
65836;SHT30;52595;51.608;7.216;2023-08-07T00:05:25;12.99;99.99
65836;SHT30;52595;51.608;7.216;2023-08-07T00:07:51;13.00;99.99
65836;SHT30;52595;51.608;7.216;2023-08-07T00:10:16;12.99;99.99
65836;SHT30;52595;51.608;7.216;2023-08-07T00:12:42;13.02;99.99
65836;SHT30;52595;51.608;7.216;2023-08-07T00:15:09;13.02;99.99
65836;SHT30;52595;51.608;7.216;2023-08-07T00:17:35;13.02;99.99
65836;SHT30;52595;51.608;7.216;2023-08-07T00:20:00;13.04;99.99
65836;SHT30;52595;51.608;7.216;2023-08-07T00:22:25;13.03;99.99
65836;SHT30;52595;51.608;7.216;2023-08-07T00:24:51;13.06;99.99
65836;SHT30;52595;51.608;7.216;2023-08-07T00:27:16;13.04;99.99
65836;SHT30;52595;51.608;7.216;2023-08-07T00:29:42;13.06;99.99
65836;SHT30;52595;51.608;7.216;2023-08-07T00:32:07;13.07;99.99
65836;SHT30;52595;51.608;7.216;2023-08-07T00:34:34;13.07;99.99
65836;SHT30;52595;51.608;7.216;2023-08-07T00:36:59;13.07;99.99
65836;SHT30;52595;51.608;7.216;2023-08-07T00:39:24;13.03;99.99
65836;SHT30;52595;51.608;7.216;2023-08-07T00:41:50;13.04;99.99
65836;SHT30;52595;51.608;7.216;2023-08-07T00:44:15;13.06;99.99
65836;SHT30;52595;51.608;7.216;2023-08-07T00:46:41;13.06;99.99
65836;SHT30;52595;51.608;7.216;2023-08-07T00:49:08;13.04;99.99
65836;SHT30;52595;51.608;7.216;2023-08-07T00:51:35;13.04;99.99
65836;SHT30;52595;51.608;7.216;2023-08-07T00:54:02;13.06;99.99
65836;SHT30;52595;51.608;7.216;2023-08-07T00:56:29;13.02;99.99
65836;SHT30;52595;51.608;7.216;2023-08-07T00:58:55;13.03;99.99
65836;SHT30;52595;51.608;7.216;2023-08-07T01:01:21;13.03;99.99
65836;SHT30;52595;51.608;7.216;2023-08-07T01:03:46;13.03;99.99
65836;SHT30;52595;51.608;7.216;2023-08-07T01:06:11;13.02;99.99
65836;SHT30;52595;51.608;7.216;2023-08-07T01:08:37;13.00;99.99
65836;SHT30;52595;51.608;7.216;2023-08-07T01:14:14;12.99;99.99
65836;SHT30;52595;51.608;7.216;2023-08-07T01:16:56;12.96;99.99
65836;SHT30;52595;51.608;7.216;2023-08-07T01:19:25;12.92;99.99
65836;SHT30;52595;51.608;7.216;2023-08-07T01:22:04;12.90;99.99
65836;SHT30;52595;51.608;7.216;2023-08-07T01:24:30;12.86;99.99
65836;SHT30;52595;51.608;7.216;2023-08-07T01:26:57;12.87;99.99
65836;SHT30;52595;51.608;7.216;2023-08-07T01:29:35;12.84;99.99
65836;SHT30;52595;51.608;7.216;2023-08-07T01:32:04;12.84;99.99
65836;SHT30;52595;51.608;7.216;2023-08-07T01:34:31;12.79;99.99
65836;SHT30;52595;51.608;7.216;2023-08-07T01:36:58;12.80;99.99
65836;SHT30;52595;51.608;7.216;2023-08-07T01:39:24;12.77;99.99
65836;SHT30;52595;51.608;7.216;2023-08-07T01:41:50;12.77;99.99
65836;SHT30;52595;51.608;7.216;2023-08-07T01:44:18;12.77;99.99
65836;SHT30;52595;51.608;7.216;2023-08-07T01:46:43;12.73;99.99
65836;SHT30;52595;51.608;7.216;2023-08-07T01:49:09;12.73;99.99
65836;SHT30;52595;51.608;7.216;2023-08-07T01:51:34;12.75;99.99
65836;SHT30;52595;51.608;7.216;2023-08-07T01:53:59;12.77;99.99
65836;SHT30;52595;51.608;7.216;2023-08-07T01:56:25;12.75;99.99
65836;SHT30;52595;51.608;7.216;2023-08-07T01:58:50;12.69;99.99
65836;SHT30;52595;51.608;7.216;2023-08-07T02:01:15;12.70;99.99
65836;SHT30;52595;51.608;7.216;2023-08-07T02:03:41;12.69;99.99
65836;SHT30;52595;51.608;7.216;2023-08-07T02:06:06;12.64;99.99
65836;SHT30;52595;51.608;7.216;2023-08-07T02:08:31;12.66;99.99
65836;SHT30;52595;51.608;7.216;2023-08-07T02:10:57;12.67;99.99
65836;SHT30;52595;51.608;7.216;2023-08-07T02:13:22;12.69;99.99
65836;SHT30;52595;51.608;7.216;2023-08-07T02:15:48;12.67;99.99
65836;SHT30;52595;51.608;7.216;2023-08-07T02:18:13;12.67;99.99
65836;SHT30;52595;51.608;7.216;2023-08-07T02:20:38;12.72;99.99
65836;SHT30;52595;51.608;7.216;2023-08-07T02:23:04;12.69;99.99
65836;SHT30;52595;51.608;7.216;2023-08-07T02:25:29;12.72;99.99
65836;SHT30;52595;51.608;7.216;2023-08-07T02:27:55;12.75;99.99
65836;SHT30;52595;51.608;7.216;2023-08-07T02:30:20;12.72;99.99
65836;SHT30;52595;51.608;7.216;2023-08-07T02:32:45;12.73;99.99
65836;SHT30;52595;51.608;7.216;2023-08-07T02:35:11;12.72;99.99
65836;SHT30;52595;51.608;7.216;2023-08-07T02:37:37;12.69;99.99
65836;SHT30;52595;51.608;7.216;2023-08-07T02:40:02;12.73;99.99
65836;SHT30;52595;51.608;7.216;2023-08-07T02:42:29;12.72;99.99
65836;SHT30;52595;51.608;7.216;2023-08-07T02:44:54;12.75;99.99
65836;SHT30;52595;51.608;7.216;2023-08-07T02:47:20;12.76;99.99
65836;SHT30;52595;51.608;7.216;2023-08-07T02:49:45;12.77;99.99
65836;SHT30;52595;51.608;7.216;2023-08-07T02:52:10;12.76;99.99
65836;SHT30;52595;51.608;7.216;2023-08-07T02:54:36;12.76;99.99
65836;SHT30;52595;51.608;7.216;2023-08-07T02:57:01;12.77;99.99
65836;SHT30;52595;51.608;7.216;2023-08-07T02:59:26;12.79;99.99
65836;SHT30;52595;51.608;7.216;2023-08-07T03:01:53;12.80;99.99
65836;SHT30;52595;51.608;7.216;2023-08-07T03:04:18;12.79;99.99
65836;SHT30;52595;51.608;7.216;2023-08-07T03:06:44;12.79;99.99
65836;SHT30;52595;51.608;7.216;2023-08-07T03:09:09;12.80;99.99
65836;SHT30;52595;51.608;7.216;2023-08-07T03:11:35;12.79;99.99
65836;SHT30;52595;51.608;7.216;2023-08-07T03:14:01;12.75;99.99
65836;SHT30;52595;51.608;7.216;2023-08-07T03:16:26;12.79;99.99
65836;SHT30;52595;51.608;7.216;2023-08-07T03:18:51;12.75;99.99
65836;SHT30;52595;51.608;7.216;2023-08-07T03:21:17;12.72;99.99
65836;SHT30;52595;51.608;7.216;2023-08-07T03:23:42;12.70;99.99
65836;SHT30;52595;51.608;7.216;2023-08-07T03:26:09;12.67;99.99
65836;SHT30;52595;51.608;7.216;2023-08-07T03:28:36;12.67;99.99
65836;SHT30;52595;51.608;7.216;2023-08-07T03:31:02;12.69;99.99
65836;SHT30;52595;51.608;7.216;2023-08-07T03:33:28;12.70;99.99
65836;SHT30;52595;51.608;7.216;2023-08-07T03:35:53;12.66;99.99
65836;SHT30;52595;51.608;7.216;2023-08-07T03:38:19;12.67;99.99
65836;SHT30;52595;51.608;7.216;2023-08-07T03:40:44;12.69;99.99
65836;SHT30;52595;51.608;7.216;2023-08-07T03:43:09;12.69;99.99
65836;SHT30;52595;51.608;7.216;2023-08-07T03:45:35;12.69;99.99
65836;SHT30;52595;51.608;7.216;2023-08-07T03:48:00;12.67;99.99
65836;SHT30;52595;51.608;7.216;2023-08-07T03:50:26;12.66;99.99
65836;SHT30;52595;51.608;7.216;2023-08-07T03:52:51;12.66;99.99
65836;SHT30;52595;51.608;7.216;2023-08-07T03:55:16;12.64;99.99
65836;SHT30;52595;51.608;7.216;2023-08-07T03:57:43;12.67;99.99
65836;SHT30;52595;51.608;7.216;2023-08-07T04:00:09;12.66;99.99
65836;SHT30;52595;51.608;7.216;2023-08-07T04:02:37;12.64;99.99
65836;SHT30;52595;51.608;7.216;2023-08-07T04:05:03;12.64;99.99
65836;SHT30;52595;51.608;7.216;2023-08-07T04:07:28;12.63;99.99
65836;SHT30;52595;51.608;7.216;2023-08-07T04:09:53;12.66;99.99
65836;SHT30;52595;51.608;7.216;2023-08-07T04:12:19;12.62;99.99
65836;SHT30;52595;51.608;7.216;2023-08-07T04:14:44;12.63;99.99
65836;SHT30;52595;51.608;7.216;2023-08-07T04:17:09;12.63;99.99
65836;SHT30;52595;51.608;7.216;2023-08-07T04:19:36;12.59;99.99
65836;SHT30;52595;51.608;7.216;2023-08-07T04:22:02;12.57;99.99
65836;SHT30;52595;51.608;7.216;2023-08-07T04:24:27;12.57;99.99
65836;SHT30;52595;51.608;7.216;2023-08-07T04:26:52;12.55;99.99
65836;SHT30;52595;51.608;7.216;2023-08-07T04:29:20;12.56;99.99
65836;SHT30;52595;51.608;7.216;2023-08-07T04:31:46;12.55;99.99
65836;SHT30;52595;51.608;7.216;2023-08-07T04:34:11;12.53;99.99
65836;SHT30;52595;51.608;7.216;2023-08-07T04:36:38;12.55;99.99
65836;SHT30;52595;51.608;7.216;2023-08-07T04:39:03;12.52;99.99
65836;SHT30;52595;51.608;7.216;2023-08-07T04:41:28;12.57;99.99
65836;SHT30;52595;51.608;7.216;2023-08-07T04:43:54;12.57;99.99
65836;SHT30;52595;51.608;7.216;2023-08-07T04:46:21;12.56;99.99
65836;SHT30;52595;51.608;7.216;2023-08-07T04:48:47;12.57;99.99
65836;SHT30;52595;51.608;7.216;2023-08-07T04:51:13;12.57;99.99
65836;SHT30;52595;51.608;7.216;2023-08-07T04:53:39;12.59;99.99
65836;SHT30;52595;51.608;7.216;2023-08-07T04:56:04;12.60;99.99
65836;SHT30;52595;51.608;7.216;2023-08-07T04:58:29;12.59;99.99
65836;SHT30;52595;51.608;7.216;2023-08-07T05:00:58;12.60;99.99
65836;SHT30;52595;51.608;7.216;2023-08-07T05:03:24;12.63;99.99
65836;SHT30;52595;51.608;7.216;2023-08-07T05:05:50;12.62;99.99
65836;SHT30;52595;51.608;7.216;2023-08-07T05:08:16;12.62;99.99
65836;SHT30;52595;51.608;7.216;2023-08-07T05:10:44;12.62;99.99
65836;SHT30;52595;51.608;7.216;2023-08-07T05:13:10;12.62;99.99
65836;SHT30;52595;51.608;7.216;2023-08-07T05:15:35;12.64;99.99
65836;SHT30;52595;51.608;7.216;2023-08-07T05:18:01;12.64;99.99
65836;SHT30;52595;51.608;7.216;2023-08-07T05:20:26;12.60;99.99
65836;SHT30;52595;51.608;7.216;2023-08-07T05:22:52;12.62;99.99
65836;SHT30;52595;51.608;7.216;2023-08-07T05:25:17;12.57;99.99
65836;SHT30;52595;51.608;7.216;2023-08-07T05:27:45;12.56;99.99
65836;SHT30;52595;51.608;7.216;2023-08-07T05:30:12;12.53;99.99
65836;SHT30;52595;51.608;7.216;2023-08-07T05:32:38;12.55;99.99
65836;SHT30;52595;51.608;7.216;2023-08-07T05:35:05;12.52;99.99
65836;SHT30;52595;51.608;7.216;2023-08-07T05:37:30;12.53;99.99
65836;SHT30;52595;51.608;7.216;2023-08-07T05:39:57;12.56;99.99
65836;SHT30;52595;51.608;7.216;2023-08-07T05:42:22;12.56;99.99
65836;SHT30;52595;51.608;7.216;2023-08-07T05:44:48;12.57;99.99
65836;SHT30;52595;51.608;7.216;2023-08-07T05:47:16;12.57;99.99
65836;SHT30;52595;51.608;7.216;2023-08-07T05:49:41;12.62;99.99
65836;SHT30;52595;51.608;7.216;2023-08-07T05:52:07;12.63;99.99
65836;SHT30;52595;51.608;7.216;2023-08-07T05:54:33;12.63;99.99
65836;SHT30;52595;51.608;7.216;2023-08-07T05:56:58;12.64;99.99
65836;SHT30;52595;51.608;7.216;2023-08-07T05:59:24;12.64;99.99
65836;SHT30;52595;51.608;7.216;2023-08-07T06:01:49;12.66;99.99
65836;SHT30;52595;51.608;7.216;2023-08-07T06:04:16;12.67;99.99
65836;SHT30;52595;51.608;7.216;2023-08-07T06:06:41;12.70;99.99
65836;SHT30;52595;51.608;7.216;2023-08-07T06:09:08;12.70;99.99
65836;SHT30;52595;51.608;7.216;2023-08-07T06:11:33;12.75;99.99
65836;SHT30;52595;51.608;7.216;2023-08-07T06:13:58;12.73;99.99
65836;SHT30;52595;51.608;7.216;2023-08-07T06:16:24;12.75;99.99
65836;SHT30;52595;51.608;7.216;2023-08-07T06:18:50;12.77;99.99
65836;SHT30;52595;51.608;7.216;2023-08-07T06:21:15;12.79;99.99
65836;SHT30;52595;51.608;7.216;2023-08-07T06:23:41;12.76;99.99
65836;SHT30;52595;51.608;7.216;2023-08-07T06:26:07;12.79;99.99
65836;SHT30;52595;51.608;7.216;2023-08-07T06:28:34;12.83;99.99
65836;SHT30;52595;51.608;7.216;2023-08-07T06:31:06;12.84;99.99
65836;SHT30;52595;51.608;7.216;2023-08-07T06:33:31;12.87;99.99
65836;SHT30;52595;51.608;7.216;2023-08-07T06:35:58;12.92;99.99
65836;SHT30;52595;51.608;7.216;2023-08-07T06:38:24;12.96;99.99
65836;SHT30;52595;51.608;7.216;2023-08-07T06:40:50;13.00;99.99
65836;SHT30;52595;51.608;7.216;2023-08-07T06:43:15;13.04;99.99
65836;SHT30;52595;51.608;7.216;2023-08-07T06:45:40;13.10;99.99
65836;SHT30;52595;51.608;7.216;2023-08-07T06:48:06;13.21;99.99
65836;SHT30;52595;51.608;7.216;2023-08-07T06:50:31;13.17;99.99
65836;SHT30;52595;51.608;7.216;2023-08-07T06:52:56;13.20;99.99
65836;SHT30;52595;51.608;7.216;2023-08-07T06:55:22;13.25;99.99
65836;SHT30;52595;51.608;7.216;2023-08-07T06:57:47;13.30;99.99
65836;SHT30;52595;51.608;7.216;2023-08-07T07:00:13;13.31;99.99
65836;SHT30;52595;51.608;7.216;2023-08-07T07:02:39;13.28;99.99
65836;SHT30;52595;51.608;7.216;2023-08-07T07:05:04;13.28;99.99
65836;SHT30;52595;51.608;7.216;2023-08-07T07:07:30;13.30;99.99
65836;SHT30;52595;51.608;7.216;2023-08-07T07:09:56;13.38;99.99
65836;SHT30;52595;51.608;7.216;2023-08-07T07:12:23;13.30;99.99
65836;SHT30;52595;51.608;7.216;2023-08-07T07:14:51;13.23;99.99
65836;SHT30;52595;51.608;7.216;2023-08-07T07:17:17;13.24;99.99
65836;SHT30;52595;51.608;7.216;2023-08-07T07:19:42;13.23;99.99
65836;SHT30;52595;51.608;7.216;2023-08-07T07:22:07;13.24;99.99
65836;SHT30;52595;51.608;7.216;2023-08-07T07:24:33;13.25;99.99
65836;SHT30;52595;51.608;7.216;2023-08-07T07:26:58;13.28;99.99
65836;SHT30;52595;51.608;7.216;2023-08-07T07:29:23;13.24;99.99
65836;SHT30;52595;51.608;7.216;2023-08-07T07:31:50;13.21;99.99
65836;SHT30;52595;51.608;7.216;2023-08-07T07:34:15;13.25;99.99
65836;SHT30;52595;51.608;7.216;2023-08-07T07:36:41;13.28;99.99
65836;SHT30;52595;51.608;7.216;2023-08-07T07:39:06;13.30;99.99
65836;SHT30;52595;51.608;7.216;2023-08-07T07:41:32;13.30;99.99
65836;SHT30;52595;51.608;7.216;2023-08-07T07:43:57;13.34;99.99
65836;SHT30;52595;51.608;7.216;2023-08-07T07:46:23;13.34;99.99
65836;SHT30;52595;51.608;7.216;2023-08-07T07:48:49;13.43;99.99
65836;SHT30;52595;51.608;7.216;2023-08-07T07:51:15;13.54;99.99
65836;SHT30;52595;51.608;7.216;2023-08-07T07:53:40;13.55;99.99
65836;SHT30;52595;51.608;7.216;2023-08-07T07:56:05;13.61;99.99
65836;SHT30;52595;51.608;7.216;2023-08-07T07:58:31;13.68;99.99
65836;SHT30;52595;51.608;7.216;2023-08-07T08:00:56;13.74;99.99
65836;SHT30;52595;51.608;7.216;2023-08-07T08:03:21;13.78;99.99
65836;SHT30;52595;51.608;7.216;2023-08-07T08:05:51;13.89;99.99
65836;SHT30;52595;51.608;7.216;2023-08-07T08:08:17;14.08;99.99
65836;SHT30;52595;51.608;7.216;2023-08-07T08:10:44;13.98;99.99
65836;SHT30;52595;51.608;7.216;2023-08-07T08:13:09;14.01;99.99
65836;SHT30;52595;51.608;7.216;2023-08-07T08:15:35;14.02;99.99
65836;SHT30;52595;51.608;7.216;2023-08-07T08:18:00;14.01;99.99
65836;SHT30;52595;51.608;7.216;2023-08-07T08:20:26;13.90;99.99
65836;SHT30;52595;51.608;7.216;2023-08-07T08:22:51;13.72;99.99
65836;SHT30;52595;51.608;7.216;2023-08-07T08:25:17;13.64;99.99
65836;SHT30;52595;51.608;7.216;2023-08-07T08:27:44;13.71;99.99
65836;SHT30;52595;51.608;7.216;2023-08-07T08:30:10;13.94;99.99
65836;SHT30;52595;51.608;7.216;2023-08-07T08:32:36;13.97;99.99
65836;SHT30;52595;51.608;7.216;2023-08-07T08:35:01;13.95;99.99
65836;SHT30;52595;51.608;7.216;2023-08-07T08:37:27;13.81;99.99
65836;SHT30;52595;51.608;7.216;2023-08-07T08:39:54;13.71;99.99
65836;SHT30;52595;51.608;7.216;2023-08-07T08:42:19;13.89;99.99
65836;SHT30;52595;51.608;7.216;2023-08-07T08:44:51;13.86;99.99
65836;SHT30;52595;51.608;7.216;2023-08-07T08:47:18;13.92;99.99
65836;SHT30;52595;51.608;7.216;2023-08-07T08:49:46;14.09;99.99
65836;SHT30;52595;51.608;7.216;2023-08-07T08:52:13;14.08;99.99
65836;SHT30;52595;51.608;7.216;2023-08-07T08:54:43;14.22;99.99
65836;SHT30;52595;51.608;7.216;2023-08-07T08:57:12;14.57;99.99
65836;SHT30;52595;51.608;7.216;2023-08-07T08:59:39;14.80;99.99
65836;SHT30;52595;51.608;7.216;2023-08-07T09:02:05;14.81;99.99
65836;SHT30;52595;51.608;7.216;2023-08-07T09:04:31;14.88;99.99
65836;SHT30;52595;51.608;7.216;2023-08-07T09:06:56;15.11;99.99
65836;SHT30;52595;51.608;7.216;2023-08-07T09:09:24;15.04;99.99
65836;SHT30;52595;51.608;7.216;2023-08-07T09:11:50;14.98;99.99
65836;SHT30;52595;51.608;7.216;2023-08-07T09:14:20;15.12;99.99
65836;SHT30;52595;51.608;7.216;2023-08-07T09:16:48;15.15;99.99
65836;SHT30;52595;51.608;7.216;2023-08-07T09:19:14;15.20;99.99
65836;SHT30;52595;51.608;7.216;2023-08-07T09:21:39;15.54;99.99
65836;SHT30;52595;51.608;7.216;2023-08-07T09:24:05;15.82;99.71
65836;SHT30;52595;51.608;7.216;2023-08-07T09:26:32;15.81;98.46
65836;SHT30;52595;51.608;7.216;2023-08-07T09:28:58;15.75;98.43
65836;SHT30;52595;51.608;7.216;2023-08-07T09:31:25;15.73;99.60
65836;SHT30;52595;51.608;7.216;2023-08-07T09:34:01;15.57;99.10
65836;SHT30;52595;51.608;7.216;2023-08-07T09:36:32;15.59;99.37
65836;SHT30;52595;51.608;7.216;2023-08-07T09:39:01;15.58;98.85
65836;SHT30;52595;51.608;7.216;2023-08-07T09:41:28;15.61;99.54
65836;SHT30;52595;51.608;7.216;2023-08-07T09:43:54;15.65;97.74
65836;SHT30;52595;51.608;7.216;2023-08-07T09:46:19;15.93;99.26
65836;SHT30;52595;51.608;7.216;2023-08-07T09:48:45;16.09;97.14
65836;SHT30;52595;51.608;7.216;2023-08-07T09:51:10;16.12;94.26
65836;SHT30;52595;51.608;7.216;2023-08-07T09:53:36;16.52;94.28
65836;SHT30;52595;51.608;7.216;2023-08-07T09:56:02;16.63;92.92
65836;SHT30;52595;51.608;7.216;2023-08-07T09:58:28;16.63;90.86
65836;SHT30;52595;51.608;7.216;2023-08-07T10:00:59;16.32;90.61
65836;SHT30;52595;51.608;7.216;2023-08-07T10:03:25;15.68;91.80
65836;SHT30;52595;51.608;7.216;2023-08-07T10:05:51;15.59;93.67
65836;SHT30;52595;51.608;7.216;2023-08-07T10:08:18;15.31;93.78
65836;SHT30;52595;51.608;7.216;2023-08-07T10:10:44;15.18;92.80
65836;SHT30;52595;51.608;7.216;2023-08-07T10:13:12;15.27;94.06
65836;SHT30;52595;51.608;7.216;2023-08-07T10:15:38;15.25;92.58
65836;SHT30;52595;51.608;7.216;2023-08-07T10:18:05;15.39;93.05
65836;SHT30;52595;51.608;7.216;2023-08-07T10:20:31;15.52;93.37
65836;SHT30;52595;51.608;7.216;2023-08-07T10:23:02;15.68;91.78
65836;SHT30;52595;51.608;7.216;2023-08-07T10:25:28;16.00;92.12
65836;SHT30;52595;51.608;7.216;2023-08-07T10:27:55;16.14;91.70
65836;SHT30;52595;51.608;7.216;2023-08-07T10:30:23;16.37;90.66
65836;SHT30;52595;51.608;7.216;2023-08-07T10:32:50;16.44;90.70
65836;SHT30;52595;51.608;7.216;2023-08-07T10:35:24;16.52;89.92
65836;SHT30;52595;51.608;7.216;2023-08-07T10:37:50;16.68;87.69
65836;SHT30;52595;51.608;7.216;2023-08-07T10:40:16;17.11;87.97
65836;SHT30;52595;51.608;7.216;2023-08-07T10:45:22;17.32;85.84
65836;SHT30;52595;51.608;7.216;2023-08-07T10:48:20;17.70;84.26
65836;SHT30;52595;51.608;7.216;2023-08-07T10:50:51;17.78;83.21
65836;SHT30;52595;51.608;7.216;2023-08-07T10:53:39;17.97;83.97
65836;SHT30;52595;51.608;7.216;2023-08-07T10:56:08;18.04;83.75
65836;SHT30;52595;51.608;7.216;2023-08-07T10:58:36;17.76;83.73
65836;SHT30;52595;51.608;7.216;2023-08-07T11:01:17;17.83;84.11
65836;SHT30;52595;51.608;7.216;2023-08-07T11:03:59;18.06;83.90
65836;SHT30;52595;51.608;7.216;2023-08-07T11:06:26;18.40;81.25
65836;SHT30;52595;51.608;7.216;2023-08-07T11:08:52;18.44;82.12
65836;SHT30;52595;51.608;7.216;2023-08-07T11:11:18;18.75;80.94
65836;SHT30;52595;51.608;7.216;2023-08-07T11:13:44;18.64;79.48
65836;SHT30;52595;51.608;7.216;2023-08-07T11:16:11;18.98;76.24
65836;SHT30;52595;51.608;7.216;2023-08-07T11:18:37;19.45;76.30
65836;SHT30;52595;51.608;7.216;2023-08-07T11:21:06;19.83;73.44
65836;SHT30;52595;51.608;7.216;2023-08-07T11:23:31;20.52;73.11
65836;SHT30;52595;51.608;7.216;2023-08-07T11:25:56;20.89;71.85
65836;SHT30;52595;51.608;7.216;2023-08-07T11:28:23;20.98;70.51
65836;SHT30;52595;51.608;7.216;2023-08-07T11:30:50;20.21;70.79
65836;SHT30;52595;51.608;7.216;2023-08-07T11:33:20;18.63;74.28
65836;SHT30;52595;51.608;7.216;2023-08-07T11:35:47;19.05;75.05
65836;SHT30;52595;51.608;7.216;2023-08-07T11:38:12;18.83;74.82
65836;SHT30;52595;51.608;7.216;2023-08-07T11:40:38;19.45;73.62
65836;SHT30;52595;51.608;7.216;2023-08-07T11:43:03;20.01;72.51
65836;SHT30;52595;51.608;7.216;2023-08-07T11:45:29;20.14;72.18
65836;SHT30;52595;51.608;7.216;2023-08-07T11:47:55;20.16;69.80
65836;SHT30;52595;51.608;7.216;2023-08-07T11:50:22;20.20;69.60
65836;SHT30;52595;51.608;7.216;2023-08-07T11:52:48;20.61;68.42
65836;SHT30;52595;51.608;7.216;2023-08-07T11:55:17;20.76;67.94
65836;SHT30;52595;51.608;7.216;2023-08-07T11:57:46;21.13;66.56
65836;SHT30;52595;51.608;7.216;2023-08-07T12:00:11;20.27;68.40
65836;SHT30;52595;51.608;7.216;2023-08-07T12:02:42;19.86;70.78
65836;SHT30;52595;51.608;7.216;2023-08-07T12:05:08;19.43;69.77
65836;SHT30;52595;51.608;7.216;2023-08-07T12:07:36;19.02;71.87
65836;SHT30;52595;51.608;7.216;2023-08-07T12:10:08;18.83;72.02
65836;SHT30;52595;51.608;7.216;2023-08-07T12:12:37;19.12;73.05
65836;SHT30;52595;51.608;7.216;2023-08-07T12:15:12;18.84;72.53
65836;SHT30;52595;51.608;7.216;2023-08-07T12:17:38;18.88;71.43
65836;SHT30;52595;51.608;7.216;2023-08-07T12:20:05;18.54;74.03
65836;SHT30;52595;51.608;7.216;2023-08-07T12:22:32;18.61;74.00
65836;SHT30;52595;51.608;7.216;2023-08-07T12:24:58;19.87;69.25
65836;SHT30;52595;51.608;7.216;2023-08-07T12:27:23;19.80;69.09
65836;SHT30;52595;51.608;7.216;2023-08-07T12:29:49;20.95;67.93
65836;SHT30;52595;51.608;7.216;2023-08-07T12:32:14;21.06;66.13
65836;SHT30;52595;51.608;7.216;2023-08-07T12:34:40;21.22;66.40
65836;SHT30;52595;51.608;7.216;2023-08-07T12:37:06;21.39;66.09
65836;SHT30;52595;51.608;7.216;2023-08-07T12:39:31;21.05;66.54
65836;SHT30;52595;51.608;7.216;2023-08-07T12:41:56;20.41;68.09
65836;SHT30;52595;51.608;7.216;2023-08-07T12:44:23;21.56;65.75
65836;SHT30;52595;51.608;7.216;2023-08-07T12:46:48;22.64;63.78
65836;SHT30;52595;51.608;7.216;2023-08-07T12:49:15;22.11;63.72
65836;SHT30;52595;51.608;7.216;2023-08-07T12:51:40;21.50;64.57
65836;SHT30;52595;51.608;7.216;2023-08-07T12:54:05;21.32;65.21
65836;SHT30;52595;51.608;7.216;2023-08-07T12:56:31;20.30;65.54
65836;SHT30;52595;51.608;7.216;2023-08-07T12:58:56;20.04;67.23
65836;SHT30;52595;51.608;7.216;2023-08-07T13:01:21;21.30;65.77
65836;SHT30;52595;51.608;7.216;2023-08-07T13:03:47;20.75;65.16
65836;SHT30;52595;51.608;7.216;2023-08-07T13:06:12;20.72;66.48
65836;SHT30;52595;51.608;7.216;2023-08-07T13:08:38;19.94;67.50
65836;SHT30;52595;51.608;7.216;2023-08-07T13:11:04;19.65;67.70
65836;SHT30;52595;51.608;7.216;2023-08-07T13:13:29;21.13;65.32
65836;SHT30;52595;51.608;7.216;2023-08-07T13:15:58;21.22;64.00
65836;SHT30;52595;51.608;7.216;2023-08-07T13:18:24;21.61;62.96
65836;SHT30;52595;51.608;7.216;2023-08-07T13:20:49;21.90;60.68
65836;SHT30;52595;51.608;7.216;2023-08-07T13:23:15;21.90;61.25
65836;SHT30;52595;51.608;7.216;2023-08-07T13:25:40;22.75;60.03
65836;SHT30;52595;51.608;7.216;2023-08-07T13:28:06;22.13;59.61
65836;SHT30;52595;51.608;7.216;2023-08-07T13:30:32;21.64;62.42
65836;SHT30;52595;51.608;7.216;2023-08-07T13:33:00;20.35;63.77
65836;SHT30;52595;51.608;7.216;2023-08-07T13:35:26;20.30;65.01
65836;SHT30;52595;51.608;7.216;2023-08-07T13:37:51;20.38;66.10
65836;SHT30;52595;51.608;7.216;2023-08-07T13:40:17;19.38;66.98
65836;SHT30;52595;51.608;7.216;2023-08-07T13:42:43;19.60;67.35
65836;SHT30;52595;51.608;7.216;2023-08-07T13:45:09;18.83;68.47
65836;SHT30;52595;51.608;7.216;2023-08-07T13:47:35;18.30;75.99
65836;SHT30;52595;51.608;7.216;2023-08-07T13:50:01;15.98;86.83
65836;SHT30;52595;51.608;7.216;2023-08-07T13:52:27;14.85;92.66
65836;SHT30;52595;51.608;7.216;2023-08-07T13:54:53;14.57;95.91
65836;SHT30;52595;51.608;7.216;2023-08-07T13:57:18;14.62;97.91
65836;SHT30;52595;51.608;7.216;2023-08-07T13:59:43;14.84;97.23
65836;SHT30;52595;51.608;7.216;2023-08-07T14:02:09;15.41;96.26
65836;SHT30;52595;51.608;7.216;2023-08-07T14:04:35;16.65;96.35
65836;SHT30;52595;51.608;7.216;2023-08-07T14:07:01;16.39;92.44
65836;SHT30;52595;51.608;7.216;2023-08-07T14:09:26;17.70;93.05
65836;SHT30;52595;51.608;7.216;2023-08-07T14:11:52;17.62;89.99
65836;SHT30;52595;51.608;7.216;2023-08-07T14:14:17;18.24;91.47
65836;SHT30;52595;51.608;7.216;2023-08-07T14:16:43;18.12;87.55
65836;SHT30;52595;51.608;7.216;2023-08-07T14:19:09;17.28;91.39
65836;SHT30;52595;51.608;7.216;2023-08-07T14:21:34;16.91;90.88
65836;SHT30;52595;51.608;7.216;2023-08-07T14:24:00;17.15;90.76
65836;SHT30;52595;51.608;7.216;2023-08-07T14:26:26;16.78;90.69
65836;SHT30;52595;51.608;7.216;2023-08-07T14:28:51;16.49;92.30
65836;SHT30;52595;51.608;7.216;2023-08-07T14:31:16;16.88;92.61
65836;SHT30;52595;51.608;7.216;2023-08-07T14:33:42;18.45;90.55
65836;SHT30;52595;51.608;7.216;2023-08-07T14:36:10;17.94;87.60
65836;SHT30;52595;51.608;7.216;2023-08-07T14:38:35;17.42;84.63
65836;SHT30;52595;51.608;7.216;2023-08-07T14:41:01;17.14;85.43
65836;SHT30;52595;51.608;7.216;2023-08-07T14:43:31;17.10;85.81
65836;SHT30;52595;51.608;7.216;2023-08-07T14:45:57;17.21;85.66
65836;SHT30;52595;51.608;7.216;2023-08-07T14:48:22;17.07;84.82
65836;SHT30;52595;51.608;7.216;2023-08-07T14:50:48;17.48;84.63
65836;SHT30;52595;51.608;7.216;2023-08-07T14:53:13;17.86;84.42
65836;SHT30;52595;51.608;7.216;2023-08-07T14:55:39;17.63;81.92
65836;SHT30;52595;51.608;7.216;2023-08-07T14:58:04;17.97;83.77
65836;SHT30;52595;51.608;7.216;2023-08-07T15:00:29;18.10;81.74
65836;SHT30;52595;51.608;7.216;2023-08-07T15:02:56;18.36;80.81
65836;SHT30;52595;51.608;7.216;2023-08-07T15:05:26;18.18;81.90
65836;SHT30;52595;51.608;7.216;2023-08-07T15:07:51;18.07;80.49
65836;SHT30;52595;51.608;7.216;2023-08-07T15:10:16;18.33;79.33
65836;SHT30;52595;51.608;7.216;2023-08-07T15:12:42;18.13;78.75
65836;SHT30;52595;51.608;7.216;2023-08-07T15:15:08;18.26;78.19
65836;SHT30;52595;51.608;7.216;2023-08-07T15:17:33;19.49;74.25
65836;SHT30;52595;51.608;7.216;2023-08-07T15:19:59;20.28;72.54
65836;SHT30;52595;51.608;7.216;2023-08-07T15:22:24;20.81;71.53
65836;SHT30;52595;51.608;7.216;2023-08-07T15:24:49;20.98;70.29
65836;SHT30;52595;51.608;7.216;2023-08-07T15:27:17;21.51;68.72
65836;SHT30;52595;51.608;7.216;2023-08-07T15:29:45;20.96;66.56